createdAt,value
2019-01-30T00:01:31.465Z,4.40
2019-01-30T00:03:58.950Z,4.33
2019-01-30T00:06:26.325Z,4.50
2019-01-30T00:08:53.717Z,3.80
2019-01-30T00:11:21.043Z,4.13
2019-01-30T00:13:48.308Z,4.50
2019-01-30T00:16:15.586Z,4.13
2019-01-30T00:18:44.384Z,4.43
2019-01-30T00:21:11.673Z,4.20
2019-01-30T00:23:39.049Z,4.23
2019-01-30T00:26:06.348Z,4.17
2019-01-30T00:28:33.799Z,4.20
2019-01-30T00:31:01.153Z,4.30
2019-01-30T00:33:28.547Z,4.17
2019-01-30T00:35:57.137Z,3.80
2019-01-30T00:38:24.431Z,4.07
2019-01-30T00:40:51.838Z,4.13
2019-01-30T00:43:19.190Z,4.17
2019-01-30T00:45:46.592Z,3.90
2019-01-30T00:48:13.961Z,4.50
2019-01-30T00:50:41.253Z,3.60
2019-01-30T00:53:08.592Z,4.20
2019-01-30T00:55:37.018Z,4.20
2019-01-30T00:58:04.630Z,4.40
2019-01-30T01:00:32.058Z,4.27
2019-01-30T01:03:01.594Z,4.33
2019-01-30T01:05:28.915Z,3.90
2019-01-30T01:07:56.246Z,3.63
2019-01-30T01:10:23.520Z,4.30
2019-01-30T01:12:50.935Z,4.17
2019-01-30T01:15:18.406Z,4.30
2019-01-30T01:17:45.757Z,4.07
2019-01-30T01:20:13.298Z,3.67
2019-01-30T01:22:41.384Z,4.00
2019-01-30T01:25:10.196Z,4.00
2019-01-30T01:27:37.585Z,4.17
2019-01-30T01:30:07.528Z,3.63
2019-01-30T01:32:36.906Z,3.80
2019-01-30T01:35:04.837Z,3.90
2019-01-30T01:37:34.176Z,4.43
2019-01-30T01:40:01.548Z,3.80
2019-01-30T01:42:29.000Z,3.53
2019-01-30T01:44:56.414Z,4.07
2019-01-30T01:47:23.902Z,3.67
2019-01-30T01:49:51.265Z,3.90
2019-01-30T01:52:18.754Z,4.23
2019-01-30T01:54:46.333Z,4.00
2019-01-30T01:57:13.701Z,3.90
2019-01-30T01:59:41.159Z,3.90
2019-01-30T02:02:09.435Z,3.73
2019-01-30T02:04:36.744Z,3.70
2019-01-30T02:07:04.130Z,3.60
2019-01-30T02:09:32.830Z,3.50
2019-01-30T02:12:00.216Z,3.53
2019-01-30T02:14:27.470Z,3.47
2019-01-30T02:16:54.705Z,3.73
2019-01-30T02:19:22.071Z,3.30
2019-01-30T02:21:49.466Z,3.40
2019-01-30T02:24:16.777Z,3.60
2019-01-30T02:26:44.496Z,3.30
2019-01-30T02:29:11.941Z,3.47
2019-01-30T02:31:39.438Z,3.23
2019-01-30T02:34:06.871Z,3.30
2019-01-30T02:36:53.795Z,3.80
2019-01-30T02:39:21.302Z,3.57
2019-01-30T02:41:48.572Z,3.43
2019-01-30T02:44:16.191Z,3.60
2019-01-30T02:46:43.611Z,3.30
2019-01-30T02:49:10.950Z,3.37
2019-01-30T02:51:38.306Z,3.10
2019-01-30T02:54:05.679Z,3.50
2019-01-30T02:56:33.047Z,3.50
2019-01-30T02:59:00.543Z,3.30
2019-01-30T03:01:28.051Z,3.17
2019-01-30T03:03:55.288Z,3.20
2019-01-30T03:06:42.081Z,3.23
2019-01-30T03:09:09.377Z,3.43
2019-01-30T03:11:36.599Z,3.13
2019-01-30T03:14:03.954Z,3.10
2019-01-30T03:16:31.202Z,3.00
2019-01-30T03:18:58.588Z,3.43
2019-01-30T03:21:25.858Z,3.10
2019-01-30T03:23:53.158Z,3.30
2019-01-30T03:26:20.516Z,3.27
2019-01-30T03:28:50.191Z,3.27
2019-01-30T03:31:19.405Z,3.30
2019-01-30T03:33:46.883Z,3.43
2019-01-30T03:36:14.294Z,3.37
2019-01-30T03:38:41.697Z,3.10
2019-01-30T03:41:09.092Z,3.67
2019-01-30T03:43:36.424Z,3.23
2019-01-30T03:46:03.804Z,3.23
2019-01-30T03:48:31.187Z,3.70
2019-01-30T03:50:58.594Z,3.30
2019-01-30T03:53:25.869Z,3.43
2019-01-30T03:55:53.304Z,3.30
2019-01-30T03:58:20.559Z,3.33
2019-01-30T04:00:47.853Z,3.30
2019-01-30T04:03:15.659Z,3.30
2019-01-30T04:05:42.944Z,3.30
2019-01-30T04:08:10.254Z,3.30
2019-01-30T04:10:37.552Z,3.70
2019-01-30T04:13:04.731Z,3.80
2019-01-30T04:15:31.911Z,3.60
2019-01-30T04:18:01.079Z,3.53
2019-01-30T04:20:28.405Z,3.43
2019-01-30T04:22:55.798Z,3.30
2019-01-30T04:25:23.114Z,3.50
2019-01-30T04:27:50.465Z,3.27
2019-01-30T04:30:21.259Z,3.40
2019-01-30T04:32:48.554Z,3.40
2019-01-30T04:35:15.966Z,2.93
2019-01-30T04:37:43.340Z,3.50
2019-01-30T04:40:13.158Z,3.27
2019-01-30T04:42:40.415Z,3.00
2019-01-30T04:45:09.754Z,3.50
2019-01-30T04:47:37.476Z,3.30
2019-01-30T04:50:04.984Z,3.43
2019-01-30T04:52:32.433Z,3.30
2019-01-30T04:54:59.896Z,3.30
2019-01-30T04:57:27.211Z,3.13
2019-01-30T04:59:54.649Z,3.20
2019-01-30T05:02:22.011Z,3.43
2019-01-30T05:04:49.340Z,3.43
2019-01-30T05:07:16.648Z,3.50
2019-01-30T05:09:44.256Z,3.87
2019-01-30T05:12:11.657Z,3.07
2019-01-30T05:14:38.968Z,3.37
2019-01-30T05:17:06.388Z,3.00
2019-01-30T05:19:33.720Z,3.07
2019-01-30T05:22:01.049Z,3.40
2019-01-30T05:24:28.386Z,3.63
2019-01-30T05:26:55.660Z,3.47
2019-01-30T05:29:22.982Z,3.33
2019-01-30T05:32:00.615Z,3.43
2019-01-30T05:34:19.674Z,3.67
2019-01-30T05:36:47.070Z,3.43
2019-01-30T05:39:14.388Z,4.10
2019-01-30T05:41:41.717Z,3.67
2019-01-30T05:44:09.154Z,3.87
2019-01-30T05:46:36.428Z,3.73
2019-01-30T05:49:03.856Z,3.30
2019-01-30T05:51:31.234Z,3.57
2019-01-30T05:53:59.014Z,3.60
2019-01-30T05:56:26.382Z,3.70
2019-01-30T05:58:53.803Z,3.40
2019-01-30T06:01:21.087Z,3.80
2019-01-30T06:03:48.438Z,3.63
2019-01-30T06:06:15.877Z,3.43
2019-01-30T06:08:43.346Z,3.90
2019-01-30T06:11:12.123Z,3.30
2019-01-30T06:13:39.559Z,3.40
2019-01-30T06:16:06.971Z,3.50
2019-01-30T06:18:34.393Z,3.57
2019-01-30T06:21:01.791Z,3.63
2019-01-30T06:23:29.332Z,3.30
2019-01-30T06:25:56.680Z,3.30
2019-01-30T06:28:28.730Z,3.50
2019-01-30T06:30:53.229Z,3.43
2019-01-30T06:33:20.518Z,3.17
2019-01-30T06:35:47.860Z,3.43
2019-01-30T06:38:15.188Z,3.60
2019-01-30T06:40:42.558Z,3.37
2019-01-30T06:43:09.872Z,3.70
2019-01-30T06:45:37.228Z,3.40
2019-01-30T06:48:04.643Z,3.30
2019-01-30T06:50:31.935Z,3.40
2019-01-30T06:52:59.294Z,3.30
2019-01-30T06:55:26.781Z,3.47
2019-01-30T06:57:54.184Z,3.37
2019-01-30T07:00:23.694Z,3.33
2019-01-30T07:02:51.115Z,3.43
2019-01-30T07:05:18.529Z,3.70
2019-01-30T07:07:45.993Z,3.40
2019-01-30T07:10:21.759Z,3.50
2019-01-30T07:12:49.335Z,3.63
2019-01-30T07:15:17.290Z,3.53
2019-01-30T07:17:45.942Z,3.37
2019-01-30T07:20:25.630Z,3.70
2019-01-30T07:22:55.320Z,3.70
2019-01-30T07:25:22.851Z,3.80
2019-01-30T07:27:50.282Z,3.37
2019-01-30T07:30:18.946Z,3.50
2019-01-30T07:32:46.506Z,3.80
2019-01-30T07:35:14.246Z,3.30
2019-01-30T07:37:41.756Z,3.53
2019-01-30T07:40:09.399Z,3.33
2019-01-30T07:42:36.835Z,3.70
2019-01-30T07:45:05.838Z,3.57
2019-01-30T07:47:33.392Z,3.63
2019-01-30T07:50:00.869Z,3.63
2019-01-30T07:52:28.388Z,3.57
2019-01-30T07:54:55.840Z,4.00
2019-01-30T07:57:23.312Z,3.30
2019-01-30T07:59:50.702Z,3.80
2019-01-30T08:02:18.218Z,3.40
2019-01-30T08:04:45.644Z,3.50
2019-01-30T08:07:13.076Z,3.70
2019-01-30T08:09:40.425Z,3.70
2019-01-30T08:12:07.626Z,3.43
2019-01-30T08:14:35.026Z,4.00
2019-01-30T08:17:02.429Z,3.50
2019-01-30T08:19:29.795Z,3.53
2019-01-30T08:21:57.110Z,3.43
2019-01-30T08:24:24.499Z,3.63
2019-01-30T08:26:52.003Z,3.70
2019-01-30T08:29:19.686Z,3.40
2019-01-30T08:31:47.227Z,3.80
2019-01-30T08:34:14.677Z,3.93
2019-01-30T08:36:42.248Z,3.73
2019-01-30T08:39:09.641Z,3.87
2019-01-30T08:41:37.077Z,3.70
2019-01-30T08:44:04.477Z,3.70
2019-01-30T08:46:32.033Z,4.07
2019-01-30T08:48:59.590Z,3.97
2019-01-30T08:51:27.040Z,4.00
2019-01-30T08:53:54.316Z,4.13
2019-01-30T08:56:21.758Z,3.70
2019-01-30T08:58:49.160Z,3.70
2019-01-30T09:01:16.673Z,3.73
2019-01-30T09:03:44.051Z,3.90
2019-01-30T09:06:11.508Z,4.30
2019-01-30T09:08:38.898Z,4.17
2019-01-30T09:11:06.159Z,3.77
2019-01-30T09:13:33.378Z,3.73
2019-01-30T09:16:00.652Z,3.40
2019-01-30T09:18:27.954Z,3.47
2019-01-30T09:20:55.292Z,3.57
2019-01-30T09:23:22.765Z,3.80
2019-01-30T09:25:50.175Z,3.67
2019-01-30T09:28:17.633Z,3.80
2019-01-30T09:30:45.006Z,3.63
2019-01-30T09:33:12.281Z,3.80
2019-01-30T09:35:39.880Z,4.00
2019-01-30T09:38:07.489Z,3.97
2019-01-30T09:40:35.126Z,3.90
2019-01-30T09:43:02.647Z,3.77
2019-01-30T09:45:30.074Z,3.97
2019-01-30T09:47:57.465Z,4.10
2019-01-30T09:50:24.873Z,4.07
2019-01-30T09:52:52.339Z,4.30
2019-01-30T09:55:19.846Z,4.17
2019-01-30T09:57:47.276Z,4.67
2019-01-30T10:00:17.893Z,4.10
2019-01-30T10:02:45.227Z,4.47
2019-01-30T10:05:12.558Z,4.50
2019-01-30T10:07:39.896Z,4.73
2019-01-30T10:10:09.244Z,4.40
2019-01-30T10:12:36.607Z,4.33
2019-01-30T10:15:05.502Z,4.27
2019-01-30T10:17:32.862Z,3.90
2019-01-30T10:20:00.348Z,4.10
2019-01-30T10:22:29.981Z,4.10
2019-01-30T10:24:57.373Z,4.13
2019-01-30T10:27:24.870Z,4.57
2019-01-30T10:29:52.244Z,4.30
2019-01-30T10:32:20.446Z,4.57
2019-01-30T10:34:47.842Z,4.50
2019-01-30T10:37:15.065Z,4.50
2019-01-30T10:39:42.396Z,4.30
2019-01-30T10:42:09.671Z,4.40
2019-01-30T10:44:37.190Z,4.77
2019-01-30T10:47:04.561Z,4.10
2019-01-30T10:49:31.872Z,4.07
2019-01-30T10:51:59.248Z,4.40
2019-01-30T10:54:26.460Z,4.30
2019-01-30T10:56:53.911Z,4.17
2019-01-30T10:59:21.320Z,4.37
2019-01-30T11:01:48.715Z,4.17
2019-01-30T11:04:16.248Z,4.30
2019-01-30T11:06:43.857Z,4.07
2019-01-30T11:09:11.350Z,3.80
2019-01-30T11:11:38.797Z,4.17
2019-01-30T11:14:06.215Z,4.10
2019-01-30T11:16:33.528Z,3.60
2019-01-30T11:19:00.871Z,4.20
2019-01-30T11:21:28.242Z,3.87
2019-01-30T11:23:55.623Z,4.07
2019-01-30T11:26:22.975Z,3.80
2019-01-30T11:28:50.309Z,3.50
2019-01-30T11:31:17.781Z,3.93
2019-01-30T11:33:45.075Z,3.73
2019-01-30T11:36:12.406Z,4.00
2019-01-30T11:38:39.925Z,3.60
2019-01-30T11:41:07.308Z,3.50
2019-01-30T11:43:34.784Z,3.90
2019-01-30T11:46:03.111Z,3.67
2019-01-30T11:48:30.436Z,3.40
2019-01-30T11:50:57.861Z,2.93
2019-01-30T11:53:25.283Z,3.50
2019-01-30T11:55:53.115Z,3.33
2019-01-30T11:58:20.600Z,3.30
2019-01-30T12:01:07.422Z,3.50
2019-01-30T12:03:34.830Z,3.20
2019-01-30T12:06:02.480Z,3.50
2019-01-30T12:08:43.971Z,3.60
2019-01-30T12:11:11.404Z,3.50
2019-01-30T12:13:39.885Z,3.20
2019-01-30T12:16:07.347Z,3.40
2019-01-30T12:18:35.011Z,3.30
2019-01-30T12:21:02.576Z,3.40
2019-01-30T12:23:29.949Z,3.53
2019-01-30T12:25:57.364Z,3.10
2019-01-30T12:28:24.807Z,3.00
2019-01-30T12:30:52.541Z,3.20
2019-01-30T12:33:20.283Z,3.00
2019-01-30T12:35:47.763Z,3.00
2019-01-30T12:38:22.634Z,3.40
2019-01-30T12:40:49.983Z,4.00
2019-01-30T12:43:17.357Z,3.23
2019-01-30T12:45:44.743Z,3.30
2019-01-30T12:48:12.152Z,3.40
2019-01-30T12:50:39.629Z,3.23
2019-01-30T12:53:07.272Z,2.93
2019-01-30T12:55:34.624Z,3.20
2019-01-30T12:58:01.841Z,2.90
2019-01-30T13:00:31.892Z,3.10
2019-01-30T13:02:59.352Z,2.80
2019-01-30T13:05:27.007Z,2.87
2019-01-30T13:07:54.301Z,3.03
2019-01-30T13:10:21.710Z,2.90
2019-01-30T13:12:49.214Z,3.10
2019-01-30T13:15:19.044Z,2.93
2019-01-30T13:17:46.815Z,3.13
2019-01-30T13:20:19.158Z,2.73
2019-01-30T13:22:46.618Z,2.70
2019-01-30T13:25:16.565Z,2.87
2019-01-30T13:27:43.871Z,2.90
2019-01-30T13:30:20.713Z,3.10
2019-01-30T13:32:48.277Z,2.90
2019-01-30T13:35:15.693Z,2.80
2019-01-30T13:37:43.102Z,2.80
2019-01-30T13:40:17.394Z,2.87
2019-01-30T13:42:44.791Z,2.90
2019-01-30T13:45:12.277Z,2.87
2019-01-30T13:47:41.154Z,2.80
2019-01-30T13:50:14.536Z,2.97
2019-01-30T13:52:42.047Z,2.80
2019-01-30T13:55:09.979Z,2.77
2019-01-30T13:57:37.590Z,2.83
2019-01-30T14:00:14.411Z,2.67
2019-01-30T14:02:41.911Z,2.70
2019-01-30T14:05:09.514Z,2.60
2019-01-30T14:07:39.730Z,2.40
2019-01-30T14:10:07.136Z,2.40
2019-01-30T14:12:34.488Z,2.40
2019-01-30T14:15:02.038Z,2.40
2019-01-30T14:17:32.518Z,2.30
2019-01-30T14:19:59.930Z,2.10
2019-01-30T14:22:27.665Z,2.20
2019-01-30T14:24:55.158Z,1.90
2019-01-30T14:27:22.582Z,2.30
2019-01-30T14:29:58.070Z,2.30
2019-01-30T14:32:19.293Z,2.20
2019-01-30T14:34:46.699Z,1.80
2019-01-30T14:37:14.212Z,1.90
2019-01-30T14:39:41.627Z,2.07
2019-01-30T14:42:08.948Z,1.90
2019-01-30T14:44:36.441Z,1.90
2019-01-30T14:47:04.099Z,1.90
2019-01-30T14:49:31.593Z,2.03
2019-01-30T14:51:59.064Z,2.00
2019-01-30T14:54:26.477Z,2.10
2019-01-30T14:56:54.015Z,1.80
2019-01-30T14:59:22.093Z,1.80
2019-01-30T15:01:51.643Z,1.77
2019-01-30T15:04:19.058Z,1.80
2019-01-30T15:06:46.698Z,1.90
2019-01-30T15:09:17.334Z,1.90
2019-01-30T15:11:44.724Z,2.00
2019-01-30T15:14:12.119Z,2.00
2019-01-30T15:16:40.906Z,2.00
2019-01-30T15:19:08.391Z,2.00
2019-01-30T15:21:35.822Z,1.90
2019-01-30T15:24:03.446Z,1.80
2019-01-30T15:26:30.840Z,1.87
2019-01-30T15:28:58.306Z,1.90
2019-01-30T15:31:25.666Z,2.00
2019-01-30T15:33:53.013Z,2.10
2019-01-30T15:36:20.575Z,2.10
2019-01-30T15:38:48.055Z,2.00
2019-01-30T15:41:15.708Z,2.10
2019-01-30T15:43:43.092Z,1.87
2019-01-30T15:46:11.551Z,2.07
2019-01-30T15:48:38.911Z,2.00
2019-01-30T15:51:06.569Z,2.20
2019-01-30T15:53:35.448Z,2.00
2019-01-30T15:56:03.861Z,2.07
2019-01-30T15:58:34.172Z,2.07
2019-01-30T16:01:32.282Z,2.10
2019-01-30T16:03:59.713Z,1.93
2019-01-30T16:06:28.594Z,2.10
2019-01-30T16:08:56.027Z,1.90
2019-01-30T16:11:23.283Z,2.20
2019-01-30T16:13:50.694Z,2.30
2019-01-30T16:16:27.646Z,2.10
2019-01-30T16:18:55.332Z,2.07
2019-01-30T16:21:22.724Z,2.20
2019-01-30T16:23:50.253Z,2.20
2019-01-30T16:26:17.691Z,2.00
2019-01-30T16:28:45.219Z,2.87
2019-01-30T16:31:16.674Z,2.20
2019-01-30T16:36:31.057Z,2.30
2019-01-30T16:38:58.615Z,2.40
2019-01-30T16:41:25.953Z,2.20
2019-01-30T16:43:56.032Z,2.17
2019-01-30T16:46:23.460Z,2.10
2019-01-30T16:48:50.799Z,2.00
2019-01-30T16:51:18.232Z,2.27
2019-01-30T16:53:45.878Z,2.20
2019-01-30T16:56:13.386Z,2.43
2019-01-30T16:58:40.711Z,2.20
2019-01-30T17:01:47.318Z,2.20
2019-01-30T17:04:14.742Z,2.30
2019-01-30T17:06:43.905Z,2.13
2019-01-30T17:09:11.217Z,2.20
2019-01-30T17:11:38.802Z,2.40
2019-01-30T17:14:06.209Z,2.40
2019-01-30T17:16:36.234Z,2.10
2019-01-30T17:19:03.654Z,2.33
2019-01-30T17:21:31.011Z,2.33
2019-01-30T17:24:00.251Z,2.30
2019-01-30T17:26:27.685Z,2.50
2019-01-30T17:28:55.131Z,2.40
2019-01-30T17:32:01.657Z,2.40
2019-01-30T17:34:29.143Z,2.30
2019-01-30T17:36:56.465Z,2.40
2019-01-30T17:39:23.843Z,2.30
2019-01-30T17:41:54.441Z,2.50
2019-01-30T17:44:23.573Z,2.30
2019-01-30T17:47:10.745Z,2.40
2019-01-30T17:49:58.921Z,2.30
2019-01-30T17:52:36.707Z,2.40
2019-01-30T17:55:04.750Z,2.40
2019-01-30T17:57:35.733Z,2.50
2019-01-30T18:00:16.655Z,2.57
2019-01-30T18:02:55.697Z,2.40
2019-01-30T18:05:23.137Z,2.50
2019-01-30T18:07:50.580Z,2.50
2019-01-30T18:10:18.116Z,2.63
2019-01-30T18:12:45.559Z,2.30
2019-01-30T18:15:15.948Z,2.33
2019-01-30T18:17:43.555Z,2.40
2019-01-30T18:20:12.564Z,2.50
2019-01-30T18:22:40.073Z,2.30
2019-01-30T18:25:09.035Z,2.43
2019-01-30T18:27:36.349Z,2.30
2019-01-30T18:30:05.513Z,2.27
2019-01-30T18:32:39.040Z,2.30
2019-01-30T18:35:08.601Z,2.30
2019-01-30T18:37:39.179Z,2.60
2019-01-30T18:40:09.367Z,2.20
2019-01-30T18:42:36.877Z,2.23
2019-01-30T18:45:06.716Z,2.40
2019-01-30T18:47:34.150Z,2.47
2019-01-30T18:50:05.449Z,2.50
2019-01-30T18:52:32.709Z,2.20
2019-01-30T18:55:02.563Z,2.20
2019-01-30T18:57:33.184Z,2.30
2019-01-30T19:00:01.138Z,2.10
2019-01-30T19:02:28.570Z,2.30
2019-01-30T19:04:56.454Z,2.40
2019-01-30T19:07:23.815Z,2.30
2019-01-30T19:09:51.124Z,2.33
2019-01-30T19:12:18.454Z,2.50
2019-01-30T19:14:45.870Z,2.30
2019-01-30T19:17:13.178Z,2.57
2019-01-30T19:19:40.490Z,2.40
2019-01-30T19:22:10.594Z,2.43
2019-01-30T19:24:37.925Z,2.60
2019-01-30T19:27:05.183Z,2.53
2019-01-30T19:29:32.369Z,2.60
2019-01-30T19:32:00.932Z,2.63
2019-01-30T19:34:28.404Z,2.40
2019-01-30T19:37:03.146Z,2.60
2019-01-30T19:39:27.326Z,2.70
2019-01-30T19:41:54.740Z,2.50
2019-01-30T19:44:22.199Z,2.40
2019-01-30T19:46:49.670Z,2.30
2019-01-30T19:49:17.093Z,2.70
2019-01-30T19:51:44.580Z,2.57
2019-01-30T19:54:12.024Z,2.40
2019-01-30T19:56:39.440Z,2.80
2019-01-30T19:59:06.982Z,2.60
2019-01-30T20:01:36.198Z,2.33
2019-01-30T20:04:04.259Z,2.97
2019-01-30T20:06:31.675Z,2.50
2019-01-30T20:08:59.226Z,2.60
2019-01-30T20:11:26.629Z,2.63
2019-01-30T20:13:54.400Z,2.33
2019-01-30T20:16:21.875Z,2.70
2019-01-30T20:18:49.231Z,2.60
2019-01-30T20:21:16.653Z,2.53
2019-01-30T20:23:44.259Z,2.70
2019-01-30T20:26:11.855Z,2.73
2019-01-30T20:28:39.467Z,2.50
2019-01-30T20:31:06.941Z,2.90
2019-01-30T20:33:34.693Z,3.10
2019-01-30T20:36:02.095Z,2.60
2019-01-30T20:38:29.603Z,2.90
2019-01-30T20:40:57.221Z,3.00
2019-01-30T20:43:24.901Z,2.90
2019-01-30T20:45:52.500Z,2.40
2019-01-30T20:48:20.013Z,2.33
2019-01-30T20:50:47.503Z,2.30
2019-01-30T20:53:15.228Z,2.33
2019-01-30T20:55:42.769Z,2.40
2019-01-30T20:58:10.245Z,2.30
2019-01-30T21:00:38.182Z,2.27
2019-01-30T21:03:06.352Z,2.40
2019-01-30T21:05:33.874Z,2.57
2019-01-30T21:08:01.312Z,2.07
2019-01-30T21:10:30.973Z,2.40
2019-01-30T21:12:58.552Z,2.30
2019-01-30T21:15:26.429Z,2.30
2019-01-30T21:17:53.905Z,2.30
2019-01-30T21:20:21.408Z,2.13
2019-01-30T21:22:48.891Z,2.20
2019-01-30T21:25:18.119Z,2.50
2019-01-30T21:27:45.599Z,2.50
2019-01-30T21:30:25.349Z,2.30
2019-01-30T21:32:52.707Z,2.07
2019-01-30T21:35:20.079Z,2.30
2019-01-30T21:37:49.108Z,1.97
2019-01-30T21:40:17.035Z,2.10
2019-01-30T21:42:44.649Z,2.20
2019-01-30T21:45:16.812Z,2.50
2019-01-30T21:47:44.255Z,2.07
2019-01-30T21:50:12.310Z,2.10
2019-01-30T21:52:39.767Z,2.20
2019-01-30T21:55:09.381Z,2.00
2019-01-30T21:57:37.113Z,2.17
2019-01-30T22:00:06.970Z,2.30
2019-01-30T22:02:34.633Z,2.40
2019-01-30T22:05:02.058Z,2.30
2019-01-30T22:07:29.819Z,2.10
2019-01-30T22:09:57.666Z,2.10
2019-01-30T22:12:25.154Z,2.10
2019-01-30T22:14:52.689Z,2.27
2019-01-30T22:17:20.098Z,2.27
2019-01-30T22:19:47.442Z,2.00
2019-01-30T22:22:14.819Z,2.27
2019-01-30T22:24:42.192Z,2.33
2019-01-30T22:27:09.829Z,2.40
2019-01-30T22:29:37.331Z,2.40
2019-01-30T22:32:04.958Z,2.30
2019-01-30T22:34:32.530Z,2.30
2019-01-30T22:37:00.018Z,2.43
2019-01-30T22:39:28.586Z,2.50
2019-01-30T22:41:56.122Z,2.20
2019-01-30T22:44:23.613Z,2.70
2019-01-30T22:46:51.124Z,2.20
2019-01-30T22:49:18.809Z,2.23
2019-01-30T22:51:48.620Z,2.20
2019-01-30T22:54:36.880Z,2.27
2019-01-30T22:57:04.558Z,2.10
2019-01-30T23:02:59.152Z,2.03
2019-01-30T23:05:57.769Z,2.30
2019-01-30T23:08:46.568Z,2.00
2019-01-30T23:11:45.512Z,2.10
2019-01-30T23:14:36.819Z,2.20
2019-01-30T23:17:48.741Z,2.10
2019-01-30T23:20:23.908Z,2.30
2019-01-30T23:23:20.706Z,2.43
2019-01-30T23:25:51.235Z,2.70
2019-01-30T23:28:37.867Z,2.47
2019-01-30T23:31:27.418Z,2.27
2019-01-30T23:34:29.209Z,2.40
2019-01-30T23:37:12.774Z,2.30
2019-01-30T23:40:30.481Z,3.10
2019-01-30T23:43:34.755Z,3.10
2019-01-30T23:46:08.991Z,2.50
2019-01-30T23:49:08.039Z,2.90
2019-01-30T23:51:56.762Z,2.47
2019-01-30T23:55:00.403Z,2.20
2019-01-30T23:57:53.265Z,2.20
